Toyo Eagle — H3LY — position and weather

sailwx.info

Track history (hours):
 
Tides and Currents Weather Stations Pressure Air Temp Water Temp Dewpoint Dewpoint Depression Visibility Wind Speed Wind Dir Waves Ship Positions

Toyo Eagle

Last reported at 2017-Feb-15 18:25 UTC. Time now 2017-Feb-19 14:40 UTC.
Position N 01°15' E 104°05'.

Length 108 m; draft 4.5 m.

Type: Cargo ship. MMSI: 355327000.

Date/timePositionNaut miles runAvg speedWind from/ knotsBaromVisibWave heightAir tempDewpointWater temp
2017-Feb-15 18:25N 01°15' E 104°05'910.7
2017-Feb-15 17:33N 01°13' E 103°56'1010.4
2017-Feb-15 16:33N 01°08' E 103°47'1010.3
2017-Feb-15 15:33N 01°03' E 103°38'1211.5
2017-Feb-15 14:33N 01°09' E 103°28'1210.6
2017-Feb-15 13:27N 01°16' E 103°19'5510.8
2017-Feb-15 08:25N 01°45' E 102°32'1010.8
2017-Feb-15 07:31N 01°49' E 102°24'6 0.2
2017-Feb-13 22:29N 01°55' E 102°21'1313.6
2017-Feb-13 21:33N 01°50' E 102°33'1414.0
2017-Feb-13 20:33N 01°44' E 102°45'5012.2
2017-Feb-13 16:27N 01°14' E 103°26'1111.9
2017-Feb-13 15:33N 01°12' E 103°36'9 8.6
2017-Feb-13 14:33N 01°15' E 103°44'3 3.3
2017-Feb-13 13:33N 01°18' E 103°43'0 0.0
2017-Feb-13 12:33N 01°18' E 103°43'0 0.0
2017-Feb-13 11:33N 01°18' E 103°43'0 0.0
2017-Feb-13 10:33N 01°18' E 103°43'0 0.0
2017-Feb-13 09:33N 01°18' E 103°43'0 0.0
2017-Feb-13 08:33N 01°18' E 103°43'0 0.0
2017-Feb-13 07:30N 01°18' E 103°43'0 0.0
2017-Feb-13 06:33N 01°18' E 103°43'0 0.0
2017-Feb-13 05:33N 01°18' E 103°43'0 0.0
2017-Feb-13 04:33N 01°18' E 103°43'0 0.0
2017-Feb-13 03:33N 01°18' E 103°43'0 0.0
2017-Feb-13 02:30N 01°18' E 103°43'0 0.0
2017-Feb-13 01:33N 01°18' E 103°43'0 0.0
2017-Feb-13 00:33N 01°18' E 103°43'0 0.0
2017-Feb-12 23:27N 01°18' E 103°43'0 0.0
2017-Feb-12 22:33N 01°18' E 103°43'0 0.0
2017-Feb-12 21:33N 01°18' E 103°43'0 0.0
2017-Feb-12 20:33N 01°18' E 103°43'0 0.0
2017-Feb-12 19:33N 01°18' E 103°43'0 0.0
2017-Feb-12 18:33N 01°18' E 103°43'0 0.0
2017-Feb-12 17:33N 01°18' E 103°43'0 0.0
2017-Feb-12 16:33N 01°18' E 103°43'0 0.0
2017-Feb-12 15:33N 01°18' E 103°43'0 0.0
2017-Feb-12 14:33N 01°18' E 103°43'0 0.0
2017-Feb-12 13:33N 01°18' E 103°43'0 0.0
2017-Feb-12 12:33N 01°18' E 103°43'0 0.0
2017-Feb-12 11:33N 01°18' E 103°43'0 0.0
2017-Feb-12 10:30N 01°18' E 103°43'0 0.5
2017-Feb-12 09:33N 01°18' E 103°43'7 6.7
2017-Feb-12 08:34N 01°13' E 103°48'7 6.8
2017-Feb-12 07:33N 01°14' E 103°55'9 9.1
2017-Feb-12 06:33N 01°16' E 104°03'  
Track history (hours):
 
Tides and Currents Weather Stations Pressure Air Temp Water Temp Dewpoint Dewpoint Depression Visibility Wind Speed Wind Dir Waves Ship Positions

Toyo Eagle

Last reported at 2017-Feb-15 18:25 UTC. Time now 2017-Feb-19 14:40 UTC.
Position N 01°15' E 104°05'.

Length 108 m; draft 4.5 m.

Type: Cargo ship. MMSI: 355327000.

Date/timePositionNaut miles runAvg speedWind from/ knotsBaromVisibWave heightAir tempDewpointWater temp
2017-Feb-15 18:25N 01°15' E 104°05'910.7
2017-Feb-15 17:33N 01°13' E 103°56'1010.4
2017-Feb-15 16:33N 01°08' E 103°47'1010.3
2017-Feb-15 15:33N 01°03' E 103°38'1211.5
2017-Feb-15 14:33N 01°09' E 103°28'1210.6
2017-Feb-15 13:27N 01°16' E 103°19'5510.8
2017-Feb-15 08:25N 01°45' E 102°32'1010.8
2017-Feb-15 07:31N 01°49' E 102°24'6 0.2
2017-Feb-13 22:29N 01°55' E 102°21'1313.6
2017-Feb-13 21:33N 01°50' E 102°33'1414.0
2017-Feb-13 20:33N 01°44' E 102°45'5012.2
2017-Feb-13 16:27N 01°14' E 103°26'1111.9
2017-Feb-13 15:33N 01°12' E 103°36'9 8.6
2017-Feb-13 14:33N 01°15' E 103°44'3 3.3
2017-Feb-13 13:33N 01°18' E 103°43'0 0.0
2017-Feb-13 12:33N 01°18' E 103°43'0 0.0
2017-Feb-13 11:33N 01°18' E 103°43'0 0.0
2017-Feb-13 10:33N 01°18' E 103°43'0 0.0
2017-Feb-13 09:33N 01°18' E 103°43'0 0.0
2017-Feb-13 08:33N 01°18' E 103°43'0 0.0
2017-Feb-13 07:30N 01°18' E 103°43'0 0.0
2017-Feb-13 06:33N 01°18' E 103°43'0 0.0
2017-Feb-13 05:33N 01°18' E 103°43'0 0.0
2017-Feb-13 04:33N 01°18' E 103°43'0 0.0
2017-Feb-13 03:33N 01°18' E 103°43'0 0.0
2017-Feb-13 02:30N 01°18' E 103°43'0 0.0
2017-Feb-13 01:33N 01°18' E 103°43'0 0.0
2017-Feb-13 00:33N 01°18' E 103°43'0 0.0
2017-Feb-12 23:27N 01°18' E 103°43'0 0.0
2017-Feb-12 22:33N 01°18' E 103°43'0 0.0
2017-Feb-12 21:33N 01°18' E 103°43'0 0.0
2017-Feb-12 20:33N 01°18' E 103°43'0 0.0
2017-Feb-12 19:33N 01°18' E 103°43'0 0.0
2017-Feb-12 18:33N 01°18' E 103°43'0 0.0
2017-Feb-12 17:33N 01°18' E 103°43'0 0.0
2017-Feb-12 16:33N 01°18' E 103°43'0 0.0
2017-Feb-12 15:33N 01°18' E 103°43'0 0.0
2017-Feb-12 14:33N 01°18' E 103°43'0 0.0
2017-Feb-12 13:33N 01°18' E 103°43'0 0.0
2017-Feb-12 12:33N 01°18' E 103°43'0 0.0
2017-Feb-12 11:33N 01°18' E 103°43'0 0.0
2017-Feb-12 10:30N 01°18' E 103°43'0 0.5
2017-Feb-12 09:33N 01°18' E 103°43'7 6.7
2017-Feb-12 08:34N 01°13' E 103°48'7 6.8
2017-Feb-12 07:33N 01°14' E 103°55'9 9.1
2017-Feb-12 06:33N 01°16' E 104°03'  

Dump ship's entire track history